Hovedside
METAR-TAF:

METAR-TAF

Lufthavner :

Vamdrup

Kolding, Danmark

breddegrad: 55-26N, lengdegrad: 009-20E, høyde over havet: 44 m

Gjeldene værobservasjon

Denne rapporten ble laget for 10 minutter siden, klokken 17:20 UTC
Vind 10 kt fra Øst-nordøst
Temperatur 22°C
Luftfuktighet 53%
Trykk 1025 hPa

METAR: EKVD 261720Z AUTO 07010KT //// ///////// 22/12 Q1025

Tid: 19:30 (17:30 UTC)


TAF: fraværende

Værobservasjoner og værvarsel for over 4000 flyplasser (METAR- og TAF-rapporter).

Tilgjengelige stasjoner er representert av de røde og gule prikkene på kartet.

Hold musepekeren over prikken for å se navnet på stasjonen.

Klikk så for å se værobservasjoner og -varsler.

For å forandre kartet kan du klikke på den grønne knappen med svart kryss for å zoome inn, på den grønne knappen med strek for å zoome ut, eller på de grønne pilene for å se tilstøtende kart.


METAR-TAF: